createdAt,value
2022-11-24T00:02:29.672Z,96009.66
2022-11-24T00:04:56.135Z,96007.47
2022-11-24T00:07:22.653Z,96014.69
2022-11-24T00:09:49.102Z,96011.09
2022-11-24T00:12:15.565Z,96020.22
2022-11-24T00:14:42.173Z,96019.47
2022-11-24T00:17:08.664Z,96023.16
2022-11-24T00:19:35.103Z,96022.53
2022-11-24T00:22:01.533Z,96023.91
2022-11-24T00:24:28.004Z,96012.63
2022-11-24T00:26:54.447Z,96031.50
2022-11-24T00:29:20.918Z,96024.28
2022-11-24T00:31:47.567Z,96016.59
2022-11-24T00:34:14.331Z,96023.84
2022-11-24T00:36:41.105Z,96012.72
2022-11-24T00:39:08.321Z,96017.25
2022-11-24T00:41:34.815Z,96027.09
2022-11-24T00:44:01.284Z,96025.09
2022-11-24T00:46:28.089Z,96026.53
2022-11-24T00:48:54.948Z,96025.66
2022-11-24T00:51:22.366Z,96023.59
2022-11-24T00:56:29.754Z,96026.09
2022-11-24T00:58:56.383Z,96030.69
2022-11-24T01:01:23.824Z,96025.66
2022-11-24T01:03:50.629Z,96037.47
2022-11-24T01:06:21.259Z,96041.09
2022-11-24T01:08:47.981Z,96039.09
2022-11-24T01:11:15.855Z,96054.44
2022-11-24T01:13:42.727Z,96039.97
2022-11-24T01:16:15.512Z,96050.00
2022-11-24T01:18:42.127Z,96044.66
2022-11-24T01:21:10.228Z,96052.88
2022-11-24T01:23:37.178Z,96053.44
2022-11-24T01:26:04.330Z,96051.63
2022-11-24T01:28:30.757Z,96059.28
2022-11-24T01:31:00.684Z,96051.63
2022-11-24T01:33:27.362Z,96052.06
2022-11-24T01:35:54.017Z,96065.44
2022-11-24T01:38:20.987Z,96062.19
2022-11-24T01:40:47.556Z,96065.09
2022-11-24T01:43:23.079Z,96067.34
2022-11-24T01:45:50.942Z,96067.97
2022-11-24T01:48:25.970Z,96072.63
2022-11-24T01:50:55.963Z,96076.72
2022-11-24T01:53:22.530Z,96073.38
2022-11-24T01:55:49.015Z,96086.19
2022-11-24T01:58:16.068Z,96087.25
2022-11-24T02:00:43.323Z,96084.19
2022-11-24T02:03:10.088Z,96088.25
2022-11-24T02:05:39.291Z,96076.25
2022-11-24T02:08:05.855Z,96097.53
2022-11-24T02:10:32.379Z,96101.97
2022-11-24T02:12:59.092Z,96087.91
2022-11-24T02:15:25.801Z,96091.13
2022-11-24T02:17:52.288Z,96098.72
2022-11-24T02:20:18.823Z,96099.16
2022-11-24T02:22:57.390Z,96097.91
2022-11-24T02:25:26.959Z,96098.19
2022-11-24T02:27:54.230Z,96094.63
2022-11-24T02:30:20.964Z,96105.81
2022-11-24T02:32:47.550Z,96106.91
2022-11-24T02:35:14.466Z,96104.75
2022-11-24T02:37:41.042Z,96099.16
2022-11-24T02:40:07.977Z,96092.06
2022-11-24T02:42:36.230Z,96098.81
2022-11-24T02:45:02.771Z,96097.66
2022-11-24T02:47:29.411Z,96093.56
2022-11-24T02:49:56.024Z,96112.06
2022-11-24T02:52:22.431Z,96104.59
2022-11-24T02:54:48.967Z,96107.22
2022-11-24T02:57:15.565Z,96108.84
2022-11-24T03:06:51.701Z,96107.22
2022-11-24T03:09:18.121Z,96109.72
2022-11-24T03:11:44.592Z,96108.22
2022-11-24T03:14:11.060Z,96108.03
2022-11-24T03:16:37.608Z,96116.44
2022-11-24T03:19:04.165Z,96116.88
2022-11-24T03:21:30.679Z,96117.59
2022-11-24T03:23:57.168Z,96113.28
2022-11-24T03:26:24.135Z,96124.00
2022-11-24T03:28:52.781Z,96124.38
2022-11-24T03:31:19.521Z,96124.28
2022-11-24T03:33:46.049Z,96123.00
2022-11-24T03:36:21.703Z,96122.19
2022-11-24T03:38:48.176Z,96128.63
2022-11-24T03:41:14.642Z,96134.91
2022-11-24T03:43:44.116Z,96134.81
2022-11-24T03:46:11.399Z,96125.78
2022-11-24T03:48:37.894Z,96125.97
2022-11-24T03:51:04.450Z,96123.84
2022-11-24T03:53:31.841Z,96133.78
2022-11-24T03:55:58.440Z,96125.75
2022-11-24T03:58:25.357Z,96126.91
2022-11-24T04:00:52.409Z,96120.06
2022-11-24T04:03:19.309Z,96130.16
2022-11-24T04:05:46.011Z,96129.00
2022-11-24T04:08:12.685Z,96134.69
2022-11-24T04:10:39.222Z,96128.72
2022-11-24T04:13:11.662Z,96133.63
2022-11-24T04:15:39.319Z,96144.91
2022-11-24T04:18:06.209Z,96147.22
2022-11-24T04:20:32.917Z,96144.59
2022-11-24T04:22:59.475Z,96145.72
2022-11-24T04:25:25.938Z,96148.25
2022-11-24T04:27:53.434Z,96148.47
2022-11-24T04:30:20.019Z,96147.03
2022-11-24T04:32:46.504Z,96152.59
2022-11-24T04:35:13.166Z,96155.69
2022-11-24T04:37:39.643Z,96154.53
2022-11-24T04:40:06.932Z,96150.28
2022-11-24T04:42:33.708Z,96157.84
2022-11-24T04:45:00.695Z,96159.47
2022-11-24T04:47:27.251Z,96165.00
2022-11-24T04:49:53.989Z,96171.41
2022-11-24T04:52:21.737Z,96172.75
2022-11-24T04:54:48.603Z,96181.50
2022-11-24T04:57:18.854Z,96177.56
2022-11-24T04:59:45.389Z,96173.13
2022-11-24T05:02:12.039Z,96179.19
2022-11-24T05:04:38.648Z,96179.53
2022-11-24T05:07:05.379Z,96177.63
2022-11-24T05:09:48.218Z,96173.22
2022-11-24T05:12:18.421Z,96187.31
2022-11-24T05:14:45.350Z,96188.94
2022-11-24T05:17:11.935Z,96191.53
2022-11-24T05:19:38.784Z,96191.53
2022-11-24T05:22:05.284Z,96203.00
2022-11-24T05:24:32.260Z,96200.66
2022-11-24T05:26:58.971Z,96207.25
2022-11-24T05:29:25.627Z,96203.22
2022-11-24T05:31:52.220Z,96206.34
2022-11-24T05:34:18.958Z,96202.47
2022-11-24T05:36:54.756Z,96211.06
2022-11-24T05:39:21.477Z,96216.31
2022-11-24T05:41:47.939Z,96212.69
2022-11-24T05:44:14.489Z,96220.91
2022-11-24T05:46:41.055Z,96218.28
2022-11-24T05:49:07.648Z,96221.63
2022-11-24T05:51:34.390Z,96226.22
2022-11-24T05:54:01.171Z,96223.72
2022-11-24T05:56:27.650Z,96229.91
2022-11-24T05:58:54.223Z,96230.09
2022-11-24T06:01:20.779Z,96221.53
2022-11-24T06:03:47.250Z,96231.72
2022-11-24T06:06:14.163Z,96228.94
2022-11-24T06:08:40.667Z,96231.09
2022-11-24T06:11:19.325Z,96243.56
2022-11-24T06:13:46.384Z,96240.94
2022-11-24T06:16:13.042Z,96241.31
2022-11-24T06:18:39.702Z,96247.09
2022-11-24T06:21:11.294Z,96250.72
2022-11-24T06:23:38.720Z,96243.28
2022-11-24T06:26:05.204Z,96246.81
2022-11-24T06:28:31.704Z,96243.84
2022-11-24T06:31:02.084Z,96252.19
2022-11-24T06:33:35.430Z,96257.53
2022-11-24T06:36:02.365Z,96254.00
2022-11-24T06:38:29.000Z,96263.97
2022-11-24T06:41:06.359Z,96266.44
2022-11-24T06:43:33.145Z,96274.31
2022-11-24T06:45:59.682Z,96267.53
2022-11-24T06:48:26.280Z,96278.38
2022-11-24T06:50:53.000Z,96292.09
2022-11-24T06:53:19.967Z,96294.06
2022-11-24T06:55:46.713Z,96297.16
2022-11-24T06:58:13.249Z,96300.31
2022-11-24T07:00:39.766Z,96309.16
2022-11-24T07:03:06.381Z,96314.88
2022-11-24T07:05:32.897Z,96315.25
2022-11-24T07:08:00.422Z,96315.59
2022-11-24T07:10:26.940Z,96317.13
2022-11-24T07:12:53.389Z,96316.66
2022-11-24T07:15:19.973Z,96315.34
2022-11-24T07:17:46.470Z,96331.69
2022-11-24T07:20:12.991Z,96332.34
2022-11-24T07:22:39.440Z,96339.06
2022-11-24T07:25:07.508Z,96337.09
2022-11-24T07:27:34.085Z,96343.50
2022-11-24T07:30:00.574Z,96349.09
2022-11-24T07:32:26.990Z,96352.69
2022-11-24T07:34:53.448Z,96363.16
2022-11-24T07:37:19.884Z,96361.63
2022-11-24T07:39:46.406Z,96360.47
2022-11-24T07:42:12.871Z,96354.91
2022-11-24T07:44:40.754Z,96362.09
2022-11-24T11:45:12.622Z,96628.53
2022-11-24T11:47:41.500Z,96623.66
2022-11-24T11:50:17.857Z,96627.59
2022-11-24T11:52:50.470Z,96629.31
2022-11-24T11:55:19.919Z,96635.31
2022-11-24T11:57:52.473Z,96626.38
2022-11-24T12:00:19.386Z,96622.31
2022-11-24T12:02:58.502Z,96636.16
2022-11-24T12:05:28.447Z,96630.09
2022-11-24T12:08:09.193Z,96628.16
2022-11-24T12:10:37.641Z,96634.19
2022-11-24T12:13:10.650Z,96634.84
2022-11-24T12:15:45.123Z,96643.56
2022-11-24T12:18:48.388Z,96639.31
2022-11-24T12:21:04.209Z,96642.63
2022-11-24T12:23:42.921Z,96637.22
2022-11-24T12:26:11.103Z,96636.22
2022-11-24T12:28:44.751Z,96643.94
2022-11-24T12:31:20.815Z,96644.75
2022-11-24T12:34:01.154Z,96647.47
2022-11-24T12:36:31.095Z,96646.00
2022-11-24T12:39:00.183Z,96644.56
2022-11-24T12:41:43.278Z,96638.66
2022-11-24T12:44:17.998Z,96643.19
2022-11-24T12:46:44.847Z,96650.41
2022-11-24T12:49:11.301Z,96652.25
2022-11-24T12:51:45.064Z,96656.28
2022-11-24T12:54:15.829Z,96650.88
2022-11-24T12:57:01.225Z,96649.31
2022-11-24T12:59:56.795Z,96652.47
2022-11-24T13:02:26.050Z,96664.91
2022-11-24T13:04:55.418Z,96653.50
2022-11-24T13:07:42.163Z,96654.06
2022-11-24T13:13:11.079Z,96664.16
2022-11-24T13:16:07.061Z,96662.03
2022-11-24T13:18:58.548Z,96665.41
2022-11-24T13:21:30.856Z,96670.88
2022-11-24T13:23:57.619Z,96666.25
2022-11-24T13:26:44.392Z,96669.22
2022-11-24T13:29:29.749Z,96670.22
2022-11-24T13:32:17.693Z,96679.91
2022-11-24T13:34:45.597Z,96676.91
2022-11-24T13:37:34.788Z,96673.47
2022-11-24T13:40:07.904Z,96670.28
2022-11-24T13:42:41.714Z,96669.59
2022-11-24T13:45:30.709Z,96669.13
2022-11-24T13:47:57.173Z,96672.47
2022-11-24T13:50:24.947Z,96667.84
2022-11-24T13:53:01.325Z,96666.47
2022-11-24T13:55:29.059Z,96677.44
2022-11-24T13:57:59.694Z,96677.56
2022-11-24T14:00:30.889Z,96684.84
2022-11-24T14:03:04.291Z,96678.38
2022-11-24T14:05:35.894Z,96688.31
2022-11-24T14:08:02.665Z,96678.72
2022-11-24T14:10:30.847Z,96673.38
2022-11-24T14:13:16.104Z,96682.13
2022-11-24T14:15:42.605Z,96681.19
2022-11-24T14:18:21.559Z,96676.03
2022-11-24T14:20:48.138Z,96676.13
2022-11-24T14:23:14.623Z,96674.56
2022-11-24T14:25:42.703Z,96683.44
2022-11-24T14:28:22.535Z,96676.91
2022-11-24T14:30:49.001Z,96684.47
2022-11-24T14:33:18.559Z,96679.91
2022-11-24T14:35:46.013Z,96686.81
2022-11-24T16:06:24.254Z,96736.16
2022-11-24T16:08:53.582Z,96738.94
2022-11-24T16:11:20.566Z,96744.28
2022-11-24T16:13:52.375Z,96748.38
2022-11-24T16:16:20.805Z,96748.03
2022-11-24T16:18:47.964Z,96752.63
2022-11-24T16:21:15.793Z,96741.03
2022-11-24T16:23:42.988Z,96745.44
2022-11-24T16:26:10.605Z,96750.44
2022-11-24T16:28:38.060Z,96755.25
2022-11-24T16:31:05.237Z,96754.72
2022-11-24T16:37:00.669Z,96758.94
2022-11-24T16:39:27.566Z,96749.41
2022-11-24T16:41:55.078Z,96749.88
2022-11-24T16:44:22.766Z,96749.97
2022-11-24T16:46:50.236Z,96750.28
2022-11-24T16:51:58.935Z,96746.22
2022-11-24T16:54:26.084Z,96751.56
2022-11-24T16:56:53.097Z,96757.63
2022-11-24T17:04:42.322Z,96757.25
2022-11-24T17:07:11.580Z,96755.84
2022-11-24T17:12:26.220Z,96746.25
2022-11-24T17:15:16.465Z,96746.03
2022-11-24T17:18:01.291Z,96748.53
2022-11-24T17:20:26.847Z,96747.56
2022-11-24T17:23:48.011Z,96757.28
2022-11-24T17:29:03.441Z,96756.44
2022-11-24T17:31:35.969Z,96760.38
2022-11-24T17:34:03.641Z,96762.78
2022-11-24T17:36:31.064Z,96763.13
2022-11-24T17:38:59.058Z,96765.38
2022-11-24T17:41:25.835Z,96768.03
2022-11-24T17:43:53.272Z,96761.69
2022-11-24T17:46:20.167Z,96769.28
2022-11-24T17:48:47.172Z,96773.78
2022-11-24T17:51:17.874Z,96769.63
2022-11-24T17:53:46.124Z,96764.91
2022-11-24T17:56:14.398Z,96770.84
2022-11-24T17:58:43.075Z,96781.91
2022-11-24T18:01:10.717Z,96783.50
2022-11-24T18:03:38.746Z,96787.44
2022-11-24T18:06:09.417Z,96792.63
2022-11-24T18:08:36.674Z,96792.28
2022-11-24T18:11:07.339Z,96787.00
2022-11-24T18:13:55.742Z,96792.63
2022-11-24T18:16:21.869Z,96802.25
2022-11-24T18:19:00.672Z,96808.47
2022-11-24T18:21:34.837Z,96797.00
2022-11-24T18:24:02.462Z,96804.16
2022-11-24T18:26:30.301Z,96798.88
2022-11-24T18:28:57.355Z,96794.47
2022-11-24T18:31:25.105Z,96788.72
2022-11-24T18:33:52.358Z,96800.13
2022-11-24T18:36:19.934Z,96798.88
2022-11-24T18:38:46.918Z,96804.75
2022-11-24T18:41:14.469Z,96800.19
2022-11-24T18:43:42.008Z,96798.34
2022-11-24T18:46:11.373Z,96807.22
2022-11-24T18:48:38.459Z,96801.06
2022-11-24T18:51:07.688Z,96800.06
2022-11-24T18:53:40.206Z,96803.63
2022-11-24T18:56:07.592Z,96797.16
2022-11-24T18:58:34.886Z,96799.22
2022-11-24T19:01:12.396Z,96793.47
2022-11-24T19:03:48.768Z,96809.63
2022-11-24T19:06:22.547Z,96798.03
2022-11-24T19:08:49.748Z,96800.50
2022-11-24T19:11:20.434Z,96795.66
2022-11-24T19:13:48.326Z,96798.44
2022-11-24T19:16:15.930Z,96797.47
2022-11-24T19:18:44.758Z,96799.59
2022-11-24T19:21:14.775Z,96809.38
2022-11-24T19:23:43.507Z,96801.47
2022-11-24T19:26:10.473Z,96796.22
2022-11-24T19:28:37.454Z,96796.00
2022-11-24T19:31:05.462Z,96797.44
2022-11-24T19:33:32.801Z,96784.31
2022-11-24T19:36:03.945Z,96792.00
2022-11-24T19:38:31.314Z,96784.16
2022-11-24T19:41:02.619Z,96789.31
2022-11-24T19:43:29.530Z,96786.66
2022-11-24T19:46:00.486Z,96787.22
2022-11-24T19:48:29.963Z,96788.09
2022-11-24T19:51:01.132Z,96789.94
2022-11-24T19:53:29.281Z,96787.19
2022-11-24T19:55:56.458Z,96795.28
2022-11-24T19:58:23.362Z,96782.59
2022-11-24T20:00:50.512Z,96788.63
2022-11-24T20:03:17.334Z,96774.41
2022-11-24T20:05:44.052Z,96774.84
2022-11-24T20:08:10.868Z,96776.56
2022-11-24T20:10:40.211Z,96773.81
2022-11-24T20:13:07.409Z,96769.50
2022-11-24T20:15:34.423Z,96773.34
2022-11-24T20:18:01.431Z,96778.06
2022-11-24T20:20:28.953Z,96777.38
2022-11-24T20:22:56.459Z,96780.97
2022-11-24T20:25:23.564Z,96763.59
2022-11-24T20:27:50.397Z,96775.53
2022-11-24T20:30:17.674Z,96762.56
2022-11-24T20:32:45.085Z,96771.56
2022-11-24T20:35:17.866Z,96772.47
2022-11-24T20:37:45.202Z,96785.34
2022-11-24T20:40:12.599Z,96775.56
2022-11-24T20:42:39.606Z,96771.00
2022-11-24T20:45:06.953Z,96775.72
2022-11-24T21:12:06.684Z,96782.34
2022-11-24T21:14:35.361Z,96789.66
2022-11-24T21:17:02.751Z,96792.41
2022-11-24T21:19:30.100Z,96797.91
2022-11-24T21:21:56.917Z,96792.31
2022-11-24T21:24:23.718Z,96799.25
2022-11-24T21:26:53.065Z,96797.94
2022-11-24T21:29:22.612Z,96806.09
2022-11-24T21:31:53.070Z,96792.16
2022-11-24T21:34:20.459Z,96800.88
2022-11-24T21:36:47.834Z,96792.78
2022-11-24T21:39:15.233Z,96795.06
2022-11-24T21:41:42.506Z,96795.66
2022-11-24T21:44:13.291Z,96788.56
2022-11-24T21:46:45.002Z,96793.72
2022-11-24T21:49:15.587Z,96788.94
2022-11-24T21:51:42.426Z,96790.97
2022-11-24T21:54:11.794Z,96796.19
2022-11-24T21:56:38.687Z,96793.75
2022-11-24T21:59:05.628Z,96783.81
2022-11-24T22:01:32.339Z,96783.66
2022-11-24T22:03:59.370Z,96786.31
2022-11-24T22:06:26.490Z,96790.34
2022-11-24T22:08:53.499Z,96787.56
2022-11-24T22:11:22.046Z,96788.31
2022-11-24T22:13:49.341Z,96771.91
2022-11-24T22:16:17.334Z,96783.50
2022-11-24T22:18:45.155Z,96777.72
2022-11-24T22:21:15.529Z,96789.03
2022-11-24T22:23:42.430Z,96781.09
2022-11-24T22:26:14.375Z,96781.63
2022-11-24T22:28:41.774Z,96785.44
2022-11-24T22:31:12.436Z,96781.91
2022-11-24T22:33:39.345Z,96789.44
2022-11-24T22:36:07.226Z,96784.78
2022-11-24T22:38:34.113Z,96771.88
2022-11-24T22:41:02.195Z,96780.97
2022-11-24T22:43:31.022Z,96778.78
2022-11-24T22:45:57.991Z,96785.03
2022-11-24T22:48:25.135Z,96784.53
2022-11-24T22:50:52.581Z,96776.47
2022-11-24T22:53:19.500Z,96782.69
2022-11-24T22:55:46.833Z,96785.03
2022-11-24T22:58:15.002Z,96774.19
2022-11-24T23:00:42.034Z,96784.88
2022-11-24T23:03:08.978Z,96778.88
2022-11-24T23:05:36.213Z,96785.75
2022-11-24T23:08:03.019Z,96775.31
2022-11-24T23:10:29.878Z,96780.97
2022-11-24T23:12:59.770Z,96776.41
2022-11-24T23:15:26.556Z,96769.38
2022-11-24T23:17:53.438Z,96774.59
2022-11-24T23:20:20.988Z,96775.56
2022-11-24T23:22:48.130Z,96772.63
2022-11-24T23:25:14.958Z,96770.22
2022-11-24T23:27:41.914Z,96776.41
2022-11-24T23:30:10.209Z,96777.97
2022-11-24T23:32:37.201Z,96781.59
2022-11-24T23:35:04.608Z,96786.16
2022-11-24T23:37:45.710Z,96791.16
2022-11-24T23:40:18.910Z,96785.94
2022-11-24T23:42:48.737Z,96783.16
2022-11-24T23:45:15.594Z,96780.41
2022-11-24T23:47:42.431Z,96790.53
2022-11-24T23:50:09.568Z,96778.50
2022-11-24T23:52:36.528Z,96759.56
2022-11-24T23:55:03.701Z,96754.84
2022-11-24T23:57:30.479Z,96763.50
2022-11-24T23:59:57.790Z,96766.75
